Terminal Aerodrome Forecast
Issued by NWS

Current Version | Previous Version | Text Only | Print | Product List | Glossary Off
Versions: 1 2 3 4 5 6 7 8 9 10 11 12 13 14 15 16 17 18 19 20 21

000
FTUS41 KRLX 221100
TAFCKB
TAF
KCKB 221125Z 2212/2312 23012G20KT P6SM SHRA OVC040
     FM221400 25016G25KT P6SM SHRA BKN030
     FM221700 25016G26KT P6SM SHRA VCTS BKN020CB
     FM222000 25012G23KT P6SM BKN035
     FM230100 27010G15KT P6SM BKN040
     FM230400 27006KT P6SM BKN040=

USA.gov is the U.S. government's official web portal to all federal, state and local government web resources and services.